createdAt,value
2023-08-21T19:41:02.481Z,60.06
2023-08-21T19:46:05.163Z,61.00
2023-08-21T19:51:06.926Z,61.36
2023-08-21T19:56:08.512Z,60.86
2023-08-21T20:01:11.946Z,61.34
2023-08-21T20:06:16.258Z,61.00
2023-08-21T20:11:18.046Z,61.23
2023-08-21T20:16:19.770Z,62.89
2023-08-21T20:21:22.374Z,64.22
2023-08-21T20:26:25.677Z,63.24
2023-08-21T20:31:27.530Z,61.38
2023-08-21T20:36:29.123Z,61.79
2023-08-21T20:41:31.927Z,62.51
2023-08-21T20:46:33.548Z,63.41
2023-08-21T20:51:35.826Z,63.64
2023-08-21T20:56:37.441Z,65.81
2023-08-21T21:01:38.982Z,65.38
2023-08-21T21:06:40.624Z,65.15
2023-08-21T21:11:42.187Z,65.13
2023-08-21T21:16:44.624Z,65.69
2023-08-21T21:21:46.434Z,66.91
2023-08-21T21:26:48.021Z,66.91
2023-08-21T21:31:49.668Z,66.17
2023-08-21T21:36:51.273Z,67.44
2023-08-21T21:41:52.888Z,67.12
2023-08-21T21:46:54.412Z,66.95
2023-08-21T21:51:55.970Z,68.36
2023-08-21T21:56:57.525Z,69.45
2023-08-21T22:01:59.246Z,69.81
2023-08-21T22:07:00.990Z,70.03
2023-08-21T22:12:02.555Z,70.04
2023-08-21T22:17:04.164Z,71.04
2023-08-21T22:22:05.704Z,70.63
2023-08-21T22:27:07.233Z,70.89
2023-08-21T22:32:08.942Z,70.68
2023-08-21T22:37:10.639Z,70.96
2023-08-21T22:42:12.557Z,70.72
2023-08-21T22:47:14.194Z,70.33
2023-08-21T22:52:15.799Z,71.54
2023-08-21T22:57:17.386Z,70.13
2023-08-21T23:02:18.947Z,70.99
2023-08-21T23:07:20.564Z,70.90
2023-08-21T23:12:22.309Z,70.31
2023-08-21T23:17:23.831Z,71.16
2023-08-21T23:22:25.921Z,71.28
2023-08-21T23:27:27.589Z,71.03
2023-08-21T23:32:29.189Z,70.90
2023-08-21T23:37:32.074Z,71.03
2023-08-21T23:42:34.138Z,70.91
2023-08-21T23:47:35.721Z,71.04
2023-08-21T23:52:37.452Z,70.71
2023-08-21T23:57:39.219Z,70.89
